Time;durP1;ratioP1;P1;durP2;ratioP2;P2;SDS_P1;SDS_P2;PMS_P1;PMS_P2;Temp;Humidity;BMP_temperature;BMP_pressure;BME280_temperature;BME280_humidity;BME280_pressure;Samples;Min_cycle;Max_cycle;Signal;HPM_P1;HPM_P2
2023/12/08 00:02:08;;;;;;;23.90;10.73;;;0.90;99.90;;;-1.26;100.00;100454.44;10477478;27;97890;-85
2023/12/08 00:07:11;;;;;;;24.67;11.80;;;0.90;99.90;;;-1.19;100.00;100467.97;10489965;27;97987;-85
2023/12/08 00:12:15;;;;;;;29.97;13.40;;;0.90;99.90;;;-1.23;100.00;100469.06;10473069;27;96863;-85
2023/12/08 00:17:19;;;;;;;32.67;14.20;;;0.90;99.90;;;-1.18;100.00;100474.84;10501057;27;96531;-85
2023/12/08 00:22:23;;;;;;;35.60;14.60;;;0.90;99.90;;;-1.16;100.00;100476.44;10477601;27;96750;-85
2023/12/08 00:27:27;;;;;;;27.57;12.60;;;0.90;99.90;;;-1.23;100.00;100482.09;10476010;27;96362;-84
2023/12/08 00:32:31;;;;;;;31.23;12.93;;;0.90;99.90;;;-1.23;100.00;100493.34;10490652;27;96428;-85
2023/12/08 00:37:35;;;;;;;25.23;11.67;;;0.80;99.90;;;-1.26;100.00;100500.50;10494410;27;96586;-85
2023/12/08 00:42:39;;;;;;;27.73;12.77;;;0.80;99.90;;;-1.38;100.00;100497.66;10463843;27;96538;-84
2023/12/08 00:47:43;;;;;;;24.77;9.77;;;0.80;99.90;;;-1.40;100.00;100509.94;10479219;27;96561;-85
2023/12/08 00:52:47;;;;;;;28.70;11.33;;;0.70;99.90;;;-1.48;100.00;100508.69;10480880;27;96521;-85
2023/12/08 00:57:50;;;;;;;24.07;10.10;;;0.70;99.90;;;-1.48;100.00;100506.06;10457711;27;96582;-85
2023/12/08 01:02:54;;;;;;;22.17;10.33;;;0.60;99.90;;;-1.51;100.00;100516.66;10465277;27;96570;-84
2023/12/08 01:07:57;;;;;;;27.47;11.97;;;0.60;99.90;;;-1.53;100.00;100515.91;10438845;27;97955;-84
2023/12/08 01:13:01;;;;;;;25.80;11.53;;;0.50;99.90;;;-1.49;100.00;100505.22;10474132;27;96584;-85
2023/12/08 01:18:05;;;;;;;27.80;11.20;;;0.60;99.90;;;-1.43;100.00;100512.72;10457882;27;96592;-85
2023/12/08 01:23:08;;;;;;;26.97;11.37;;;0.60;99.90;;;-1.42;100.00;100501.34;10465372;27;96518;-84
2023/12/08 01:28:12;;;;;;;23.33;10.13;;;0.70;99.90;;;-1.39;100.00;100518.59;10445880;27;96683;-84
2023/12/08 01:33:16;;;;;;;22.03;10.47;;;0.70;99.90;;;-1.41;100.00;100505.63;10458296;27;97714;-85
2023/12/08 01:38:19;;;;;;;24.53;10.90;;;0.60;99.90;;;-1.42;100.00;100524.81;10470258;27;96571;-85
2023/12/08 01:43:23;;;;;;;34.20;12.03;;;0.60;99.90;;;-1.49;100.00;100513.06;10463806;27;96715;-84
2023/12/08 01:48:26;;;;;;;25.33;11.43;;;0.60;99.90;;;-1.49;100.00;100510.44;10480298;27;97510;-84
2023/12/08 01:53:31;;;;;;;28.17;10.60;;;0.50;99.90;;;-1.52;100.00;100500.16;10441052;27;96500;-84
2023/12/08 01:58:35;;;;;;;23.53;10.13;;;0.50;99.90;;;-1.46;100.00;100510.25;10453777;27;96642;-84
2023/12/08 02:03:40;;;;;;;26.97;10.83;;;0.50;99.90;;;-1.53;100.00;100500.25;10458128;27;96567;-84
2023/12/08 02:08:47;;;;;;;29.47;10.33;;;0.50;99.90;;;-1.49;100.00;100500.03;10441914;27;96581;-84
2023/12/08 02:13:51;;;;;;;27.83;11.80;;;0.50;99.90;;;-1.45;100.00;100493.69;10479033;27;96652;-84
2023/12/08 02:18:56;;;;;;;27.60;10.37;;;0.50;99.90;;;-1.40;100.00;100496.06;10421590;27;96719;-85
2023/12/08 02:24:00;;;;;;;23.87;9.90;;;0.60;99.90;;;-1.37;100.00;100482.88;10453880;27;96579;-84
2023/12/08 02:29:08;;;;;;;17.20;8.23;;;0.60;99.90;;;-1.35;100.00;100487.06;10479835;27;96610;-84
2023/12/08 02:34:16;;;;;;;15.30;7.57;;;0.70;99.90;;;-1.24;100.00;100498.66;10469935;27;96664;-84
2023/12/08 02:39:21;;;;;;;25.53;10.67;;;0.80;99.90;;;-1.21;100.00;100494.09;10461118;27;96562;-85
2023/12/08 02:44:24;;;;;;;23.93;10.10;;;0.80;99.90;;;-1.20;100.00;100498.41;10452680;27;97698;-84
2023/12/08 02:49:28;;;;;;;21.47;9.83;;;0.90;99.90;;;-1.20;100.00;100493.19;10443091;27;96551;-85
2023/12/08 02:54:31;;;;;;;19.63;8.40;;;0.90;99.90;;;-1.18;100.00;100503.53;10448165;27;97276;-84
2023/12/08 02:59:35;;;;;;;21.17;9.23;;;0.90;99.90;;;-1.18;100.00;100498.31;10488874;27;96624;-84
2023/12/08 03:04:38;;;;;;;17.27;8.03;;;0.90;99.90;;;-1.27;100.00;100488.38;10483284;27;96588;-84
2023/12/08 03:09:42;;;;;;;19.70;9.17;;;0.90;99.90;;;-1.22;100.00;100507.22;10480677;27;97953;-85
2023/12/08 03:14:45;;;;;;;16.63;7.33;;;0.80;99.90;;;-1.22;100.00;100496.78;10494293;27;96569;-85
2023/12/08 03:19:49;;;;;;;17.13;8.10;;;0.80;99.90;;;-1.22;100.00;100504.63;10461129;27;96484;-85
2023/12/08 03:24:52;;;;;;;17.17;8.40;;;0.80;99.90;;;-1.30;100.00;100494.63;10463481;27;96555;-84
2023/12/08 03:29:56;;;;;;;18.37;8.13;;;0.80;99.90;;;-1.27;100.00;100486.63;10471652;27;96586;-84
2023/12/08 03:35:00;;;;;;;19.67;7.20;;;0.80;99.90;;;-1.23;100.00;100501.19;10458921;27;96567;-85
2023/12/08 03:40:04;;;;;;;19.27;7.33;;;0.90;99.90;;;-1.23;100.00;100497.72;10464711;27;96672;-84
2023/12/08 03:45:08;;;;;;;31.77;12.03;;;0.90;99.90;;;-1.16;100.00;100515.56;10494723;27;96882;-84
2023/12/08 03:50:11;;;;;;;23.20;9.63;;;0.90;99.90;;;-1.14;100.00;100502.41;10436421;27;97063;-84
2023/12/08 03:55:15;;;;;;;22.17;9.23;;;1.00;99.90;;;-1.11;100.00;100505.72;10464713;27;96597;-84
2023/12/08 04:00:19;;;;;;;19.80;7.70;;;1.00;99.90;;;-1.12;100.00;100490.16;10477443;27;96626;-85
2023/12/08 04:05:23;;;;;;;20.87;7.87;;;1.00;99.90;;;-1.06;100.00;100496.78;10427227;27;97518;-85
2023/12/08 04:10:27;;;;;;;13.83;6.23;;;1.10;99.90;;;-1.05;100.00;100499.31;10477103;27;96545;-85
2023/12/08 04:15:31;;;;;;;14.13;6.23;;;1.10;99.90;;;-1.08;100.00;100496.84;10475570;27;96749;-85
2023/12/08 04:20:35;;;;;;;11.67;6.40;;;1.10;99.90;;;-1.12;100.00;100485.78;10500951;27;96544;-85
2023/12/08 04:25:39;;;;;;;16.23;7.00;;;1.10;99.90;;;-1.09;100.00;100476.91;10459899;27;96568;-84
2023/12/08 04:30:42;;;;;;;23.33;8.97;;;1.10;99.90;;;-1.07;100.00;100472.47;10464673;27;96537;-84
2023/12/08 04:35:46;;;;;;;20.47;8.47;;;1.10;99.90;;;-1.05;100.00;100469.78;10479200;27;96555;-84
2023/12/08 04:40:49;;;;;;;16.70;7.33;;;1.10;99.90;;;-1.03;100.00;100471.34;10458930;27;96525;-84
2023/12/08 04:45:53;;;;;;;22.03;8.30;;;1.10;99.90;;;-1.05;100.00;100465.41;10481702;27;96852;-84
2023/12/08 04:50:58;;;;;;;20.40;8.23;;;1.10;99.90;;;-1.05;100.00;100464.56;10494767;27;97584;-85
2023/12/08 04:56:01;;;;;;;19.57;9.53;;;1.10;99.90;;;-1.01;100.00;100469.53;10482156;27;97266;-84
2023/12/08 05:01:05;;;;;;;26.13;9.43;;;1.10;99.90;;;-1.01;100.00;100466.06;10470566;27;96788;-85
2023/12/08 05:06:08;;;;;;;25.97;11.00;;;1.10;99.90;;;-0.99;100.00;100472.03;10429753;27;96538;-85
2023/12/08 05:11:12;;;;;;;27.77;10.60;;;1.10;99.90;;;-1.02;100.00;100470.47;10466215;27;96526;-84
2023/12/08 05:16:16;;;;;;;25.13;9.63;;;1.10;99.90;;;-1.06;100.00;100461.13;10443990;27;96640;-85
2023/12/08 05:21:19;;;;;;;23.40;11.00;;;1.10;99.90;;;-1.09;100.00;100476.91;10421375;27;96690;-85
2023/12/08 05:26:25;;;;;;;27.63;10.93;;;1.00;99.90;;;-1.11;100.00;100473.56;10433935;27;96674;-85
2023/12/08 05:31:28;;;;;;;25.90;10.53;;;1.00;99.90;;;-1.26;100.00;100466.59;10438849;27;96770;-85
2023/12/08 05:36:31;;;;;;;26.63;11.23;;;0.90;99.90;;;-1.18;100.00;100487.88;10481922;27;97235;-85
2023/12/08 05:41:37;;;;;;;25.93;11.13;;;0.90;99.90;;;-1.22;100.00;100481.16;10450604;27;96606;-85
2023/12/08 05:46:40;;;;;;;29.77;12.07;;;0.80;99.90;;;-1.26;100.00;100488.31;10483120;27;96710;-84
2023/12/08 05:51:44;;;;;;;26.73;10.90;;;0.80;99.90;;;-1.25;100.00;100486.56;10440801;27;96533;-85
2023/12/08 05:56:48;;;;;;;25.17;10.77;;;0.80;99.90;;;-1.27;100.00;100486.63;10459723;27;96562;-84
2023/12/08 06:01:53;;;;;;;24.90;10.80;;;0.80;99.90;;;-1.30;100.00;100483.38;10462989;27;97147;-85
2023/12/08 06:06:56;;;;;;;30.20;11.53;;;0.80;99.90;;;-1.29;100.00;100482.44;10448829;27;97449;-85
2023/12/08 06:12:00;;;;;;;32.87;12.03;;;0.80;99.90;;;-1.28;100.00;100479.72;10493536;27;96772;-84
2023/12/08 06:17:04;;;;;;;31.53;10.33;;;0.80;99.90;;;-1.38;100.00;100492.44;10481857;27;97195;-84
2023/12/08 06:22:10;;;;;;;31.67;9.70;;;0.70;99.90;;;-1.43;100.00;100502.28;10491295;27;96730;-84
2023/12/08 06:27:14;;;;;;;24.23;9.07;;;0.60;99.90;;;-1.50;100.00;100498.34;10473715;27;96907;-84
2023/12/08 06:32:21;;;;;;;24.50;8.73;;;0.50;99.90;;;-1.56;100.00;100503.88;10473915;27;96611;-84
2023/12/08 06:37:25;;;;;;;25.50;9.33;;;0.40;99.90;;;-1.64;100.00;100498.22;10480605;27;96832;-84
2023/12/08 06:42:29;;;;;;;20.03;8.40;;;0.40;99.90;;;-1.69;100.00;100506.28;10453776;27;98412;-84
2023/12/08 06:47:33;;;;;;;24.77;8.43;;;0.30;99.90;;;-1.67;100.00;100506.22;10470391;27;96986;-84
2023/12/08 06:52:37;;;;;;;23.77;7.87;;;0.30;99.90;;;-1.69;100.00;100493.25;10461847;27;96718;-84
2023/12/08 06:57:40;;;;;;;28.90;9.50;;;0.30;99.90;;;-1.68;100.00;100507.13;10451517;27;96567;-84
2023/12/08 07:02:47;;;;;;;21.67;8.70;;;0.30;99.90;;;-1.71;100.00;100504.69;10460663;27;96910;-84
2023/12/08 07:07:50;;;;;;;25.67;10.30;;;0.30;99.90;;;-1.66;100.00;100510.50;10461043;27;96497;-84
2023/12/08 07:12:54;;;;;;;37.63;14.10;;;0.30;99.90;;;-1.63;100.00;100513.78;10475785;27;96562;-84
2023/12/08 07:17:57;;;;;;;40.37;16.00;;;0.40;99.90;;;-1.54;100.00;100522.88;10478607;27;96748;-84
2023/12/08 07:23:02;;;;;;;32.73;12.93;;;0.50;99.90;;;-1.44;100.00;100539.72;10462057;27;97743;-84
2023/12/08 07:28:05;;;;;;;36.93;15.63;;;0.60;99.90;;;-1.41;100.00;100531.72;10485144;27;96561;-84
2023/12/08 07:33:09;;;;;;;25.43;12.10;;;0.70;99.90;;;-1.30;100.00;100535.50;10475819;27;98129;-84
2023/12/08 07:38:13;;;;;;;23.77;10.40;;;0.80;99.90;;;-1.22;100.00;100533.31;10457917;27;96524;-84
2023/12/08 07:43:16;;;;;;;29.43;11.53;;;0.90;99.90;;;-1.14;100.00;100524.16;10457273;27;97819;-83
2023/12/08 07:48:20;;;;;;;26.17;10.40;;;1.00;99.90;;;-1.08;100.00;100509.91;10447834;27;96645;-84
2023/12/08 07:53:24;;;;;;;27.13;10.10;;;1.00;99.90;;;-0.98;100.00;100510.22;10438665;27;96844;-83
2023/12/08 07:58:28;;;;;;;25.23;12.17;;;1.10;99.90;;;-0.95;100.00;100508.31;10458122;27;96642;-84
2023/12/08 08:03:31;;;;;;;34.30;13.60;;;1.20;99.90;;;-0.95;100.00;100505.69;10436695;27;98063;-83
2023/12/08 08:08:35;;;;;;;33.97;13.97;;;1.20;99.90;;;-0.89;100.00;100515.78;10444271;27;96866;-84
2023/12/08 08:13:39;;;;;;;34.50;15.70;;;1.30;99.90;;;-0.79;100.00;100526.50;10462763;27;96601;-85
2023/12/08 08:18:42;;;;;;;38.17;16.03;;;1.40;99.90;;;-0.77;100.00;100516.00;10463103;27;96619;-85
2023/12/08 08:23:46;;;;;;;31.60;12.67;;;1.50;99.90;;;-0.63;100.00;100531.72;10481534;27;96571;-84
2023/12/08 08:28:49;;;;;;;28.60;12.60;;;1.50;99.90;;;-0.59;100.00;100520.16;10447801;27;96568;-84
2023/12/08 08:33:53;;;;;;;48.27;21.23;;;1.60;99.90;;;-0.50;100.00;100510.94;10465423;27;96701;-84
2023/12/08 08:38:57;;;;;;;44.80;19.97;;;1.70;99.90;;;-0.51;100.00;100504.88;10483539;27;96662;-84
2023/12/08 08:44:01;;;;;;;37.20;18.30;;;1.70;99.90;;;-0.45;100.00;100501.91;10491503;27;98139;-85
2023/12/08 08:49:04;;;;;;;49.63;20.93;;;1.70;99.90;;;-0.39;100.00;100500.72;10466486;27;96753;-86
2023/12/08 08:54:08;;;;;;;49.83;20.23;;;1.80;99.90;;;-0.28;100.00;100504.38;10474141;27;96916;-86
2023/12/08 08:59:12;;;;;;;45.53;22.87;;;1.90;99.90;;;-0.29;100.00;100468.75;10434900;27;96527;-85
2023/12/08 09:04:17;;;;;;;38.87;17.90;;;2.00;99.90;;;-0.17;100.00;100502.91;10464025;27;97661;-86
2023/12/08 09:09:20;;;;;;;42.67;19.60;;;2.10;99.90;;;-0.10;100.00;100522.50;10458456;27;96709;-86
2023/12/08 09:14:24;;;;;;;42.73;19.60;;;2.20;99.90;;;-0.07;100.00;100519.69;10462385;27;96552;-86
2023/12/08 09:19:27;;;;;;;35.10;15.70;;;2.20;99.90;;;-0.13;100.00;100533.94;10471794;27;96629;-85
2023/12/08 09:24:31;;;;;;;55.10;28.50;;;2.10;99.90;;;-0.20;100.00;100503.06;10460339;27;96476;-85
2023/12/08 09:29:35;;;;;;;38.63;17.87;;;2.10;99.90;;;-0.13;100.00;100514.81;10433631;27;98196;-85
2023/12/08 09:34:39;;;;;;;35.47;14.17;;;2.10;99.90;;;-0.12;100.00;100498.22;10426169;27;96536;-85
2023/12/08 09:39:43;;;;;;;41.17;19.63;;;2.10;99.90;;;-0.06;100.00;100505.69;10446677;27;97066;-85
2023/12/08 09:44:49;;;;;;;29.43;14.00;;;2.20;99.90;;;-0.01;100.00;100501.88;10440896;27;97467;-86
2023/12/08 09:49:55;;;;;;;32.70;16.57;;;2.30;99.90;;;0.04;100.00;100491.13;10457385;27;96738;-86
2023/12/08 09:54:59;;;;;;;47.77;22.10;;;2.30;99.90;;;0.08;100.00;100482.19;10411099;28;96590;-86
2023/12/08 10:00:08;;;;;;;57.17;28.30;;;2.40;99.90;;;0.08;100.00;100469.13;10412526;28;96453;-86
2023/12/08 10:05:12;;;;;;;45.63;19.57;;;2.50;99.90;;;0.09;100.00;100452.50;10432871;27;96523;-86
2023/12/08 10:10:16;;;;;;;45.37;21.30;;;2.50;99.90;;;0.25;100.00;100470.69;10455365;27;96464;-86
2023/12/08 10:15:21;;;;;;;39.27;18.57;;;2.60;99.90;;;0.33;100.00;100465.00;10429301;27;96702;-86
2023/12/08 10:20:25;;;;;;;39.13;17.30;;;2.60;99.90;;;0.35;100.00;100453.47;10419279;27;96497;-86
2023/12/08 10:25:30;;;;;;;43.20;19.23;;;2.70;99.90;;;0.50;100.00;100459.53;10454385;27;96505;-85
2023/12/08 10:30:34;;;;;;;40.13;18.63;;;2.80;99.90;;;0.54;100.00;100450.56;10456347;27;96538;-85
2023/12/08 10:35:38;;;;;;;34.17;17.13;;;2.90;99.90;;;0.55;100.00;100447.00;10481433;27;96708;-85
2023/12/08 10:40:50;;;;;;;53.50;26.33;;;2.90;99.90;;;0.60;100.00;100450.19;10456042;27;96529;-85
2023/12/08 10:45:56;;;;;;;41.10;21.90;;;3.00;99.90;;;0.65;100.00;100457.72;10449085;27;96510;-85
2023/12/08 10:51:00;;;;;;;38.43;18.47;;;3.00;99.90;;;0.69;100.00;100446.13;10496282;27;96600;-85
2023/12/08 10:56:11;;;;;;;38.97;18.77;;;3.00;99.90;;;0.71;100.00;100441.63;10471425;27;98116;-85
2023/12/08 11:01:15;;;;;;;37.37;17.63;;;3.00;99.90;;;0.74;100.00;100431.81;10470966;27;96605;-85
2023/12/08 11:06:25;;;;;;;38.97;17.40;;;3.10;99.90;;;0.76;100.00;100427.31;10439880;27;96689;-85
2023/12/08 11:11:31;;;;;;;39.07;18.60;;;3.20;99.90;;;0.82;100.00;100426.06;10437701;27;96704;-86
2023/12/08 11:16:47;;;;;;;38.03;17.50;;;3.20;99.90;;;0.84;100.00;100432.06;10444292;27;96522;-86
2023/12/08 11:21:52;;;;;;;29.60;13.73;;;3.20;99.90;;;0.89;100.00;100426.50;10441764;27;96639;-86
2023/12/08 11:27:12;;;;;;;33.00;13.87;;;3.30;99.90;;;0.88;100.00;100423.06;10449812;27;96533;-86
2023/12/08 11:32:49;;;;;;;46.80;18.27;;;3.30;99.90;;;0.89;100.00;100418.66;10468885;27;96612;-86
2023/12/08 11:37:53;;;;;;;37.33;14.07;;;3.30;99.90;;;0.87;100.00;100394.38;10474812;27;96890;-87
2023/12/08 11:42:57;;;;;;;126.47;28.33;;;3.30;99.90;;;0.84;100.00;100397.19;10455979;27;97152;-87
2023/12/08 11:48:11;;;;;;;46.13;18.63;;;3.20;99.90;;;0.77;100.00;100404.59;10485188;27;96671;-87
2023/12/08 11:53:17;;;;;;;48.70;17.27;;;3.10;99.90;;;0.78;100.00;100401.03;10483642;27;96532;-87
2023/12/08 11:58:35;;;;;;;48.93;17.40;;;3.10;99.90;;;0.74;100.00;100404.81;10480792;27;96831;-87
2023/12/08 12:03:39;;;;;;;65.20;22.13;;;3.10;99.90;;;0.75;100.00;100406.50;10432700;27;96671;-86
2023/12/08 12:08:43;;;;;;;35.40;16.43;;;3.00;99.90;;;0.72;100.00;100399.69;10444499;27;96570;-87
2023/12/08 12:13:47;;;;;;;215.80;36.63;;;3.00;99.90;;;0.78;100.00;100399.28;10443170;27;97144;-87
2023/12/08 12:18:51;;;;;;;144.37;26.10;;;3.00;99.90;;;0.77;100.00;100394.97;10451627;27;96612;-87
2023/12/08 12:23:56;;;;;;;33.63;15.37;;;3.00;99.90;;;0.77;100.00;100397.59;10447673;27;97010;-87
2023/12/08 12:28:59;;;;;;;104.53;24.67;;;3.00;99.90;;;0.75;100.00;100403.88;10476420;27;96700;-86
2023/12/08 12:34:03;;;;;;;34.37;15.30;;;3.00;99.90;;;0.81;100.00;100411.31;10472637;27;96567;-86
2023/12/08 12:39:07;;;;;;;39.03;14.97;;;3.00;99.90;;;0.77;100.00;100399.38;10496719;27;97572;-87
2023/12/08 12:44:11;;;;;;;37.87;14.40;;;3.00;99.90;;;0.80;100.00;100404.41;10458962;27;96675;-87
2023/12/08 12:49:15;;;;;;;30.33;13.47;;;3.00;99.90;;;0.78;100.00;100388.81;10466176;27;97077;-86
2023/12/08 12:54:34;;;;;;;47.50;17.80;;;2.90;99.90;;;0.73;100.00;100380.44;10445332;27;96596;-86
2023/12/08 12:59:58;;;;;;;34.57;14.37;;;2.90;99.90;;;0.72;100.00;100377.91;10452183;27;96501;-86
2023/12/08 13:05:10;;;;;;;87.73;24.93;;;2.90;99.90;;;0.71;100.00;100377.06;10451178;27;97774;-86
2023/12/08 13:10:13;;;;;;;83.43;23.47;;;2.90;99.90;;;0.72;100.00;100373.53;10482744;27;96742;-86
2023/12/08 13:15:17;;;;;;;40.47;15.67;;;2.90;99.90;;;0.69;100.00;100368.50;10471692;27;97324;-86
2023/12/08 13:20:21;;;;;;;38.23;16.67;;;2.90;99.90;;;0.63;100.00;100368.91;10457441;27;96581;-86
2023/12/08 13:25:25;;;;;;;38.40;16.73;;;2.90;99.90;;;0.60;100.00;100376.97;10456574;27;96534;-86
2023/12/08 13:30:28;;;;;;;72.63;23.93;;;2.80;99.90;;;0.60;100.00;100376.97;10468188;27;96590;-86
2023/12/08 13:35:32;;;;;;;34.47;16.07;;;2.80;99.90;;;0.60;100.00;100379.56;10493462;27;96473;-85
2023/12/08 13:40:36;;;;;;;42.87;16.97;;;2.80;99.90;;;0.55;100.00;100363.34;10474583;27;96566;-84
2023/12/08 13:45:40;;;;;;;69.23;20.23;;;2.80;99.90;;;0.58;100.00;100362.28;10497095;27;96525;-87
2023/12/08 13:50:43;;;;;;;57.70;20.57;;;2.80;99.90;;;0.56;100.00;100372.03;10476895;27;96631;-86
2023/12/08 13:56:04;;;;;;;85.90;29.00;;;2.80;99.90;;;0.48;100.00;100381.19;10476239;27;96458;-88
2023/12/08 14:01:07;;;;;;;165.10;46.77;;;2.70;99.90;;;0.41;100.00;100363.38;10419951;27;96634;-88
2023/12/08 14:06:11;;;;;;;49.13;19.20;;;2.60;99.90;;;0.34;100.00;100359.47;10431981;27;96864;-89
2023/12/08 14:11:15;;;;;;;94.07;34.37;;;2.60;99.90;;;0.37;100.00;100374.97;10428855;27;96716;-89
2023/12/08 14:16:19;;;;;;;48.07;20.13;;;2.60;99.90;;;0.29;100.00;100366.78;10468745;27;96571;-89
2023/12/08 14:21:23;;;;;;;44.17;19.80;;;2.50;99.90;;;0.26;100.00;100373.88;10437586;27;96527;-89
2023/12/08 14:26:27;;;;;;;48.13;20.87;;;2.40;99.90;;;0.21;100.00;100368.13;10456435;27;96648;-90
2023/12/08 14:31:30;;;;;;;39.40;17.30;;;2.40;99.90;;;0.18;100.00;100363.09;10491959;27;96632;-89
2023/12/08 14:36:34;;;;;;;50.97;18.87;;;2.30;99.90;;;0.08;100.00;100353.31;10498540;27;96433;-89
2023/12/08 14:41:37;;;;;;;51.67;21.13;;;2.30;99.90;;;0.09;100.00;100378.50;10446181;27;96687;-89
2023/12/08 14:46:42;;;;;;;48.70;21.43;;;2.20;99.90;;;-0.04;100.00;100368.81;10438733;27;96636;-89
2023/12/08 14:51:46;;;;;;;36.97;16.27;;;2.20;99.90;;;0.03;100.00;100384.13;10482298;27;96582;-90
2023/12/08 14:56:49;;;;;;;48.73;18.63;;;2.20;99.90;;;-0.04;100.00;100407.19;10469739;27;96598;-91
2023/12/08 15:01:53;;;;;;;38.63;16.10;;;2.20;99.90;;;0.05;100.00;100426.66;10463050;27;98535;-90
2023/12/08 15:06:57;;;;;;;42.43;16.50;;;2.20;99.90;;;0.03;100.00;100421.53;10470454;27;96613;-90
2023/12/08 15:12:00;;;;;;;35.13;14.33;;;2.20;99.90;;;0.05;100.00;100432.72;10446418;27;96712;-90
2023/12/08 15:17:04;;;;;;;39.13;16.37;;;2.20;99.90;;;0.00;100.00;100411.28;10468919;27;96451;-90
2023/12/08 15:22:08;;;;;;;52.10;17.67;;;2.20;99.90;;;0.05;100.00;100414.44;10464832;27;97038;-90
2023/12/08 15:27:12;;;;;;;46.83;17.23;;;2.20;99.90;;;0.01;100.00;100412.13;10469893;27;96635;-90
2023/12/08 15:32:16;;;;;;;48.80;17.87;;;2.20;99.90;;;0.03;100.00;100421.53;10466843;27;96517;-90
2023/12/08 15:37:19;;;;;;;52.00;18.83;;;2.20;99.90;;;0.04;100.00;100417.16;10423480;27;96593;-90
2023/12/08 15:42:26;;;;;;;62.17;24.07;;;2.20;99.90;;;-0.01;100.00;100415.66;10450798;27;96521;-89
2023/12/08 15:47:50;;;;;;;41.37;18.17;;;2.20;99.90;;;-0.03;100.00;100411.47;10467721;27;96618;-89
2023/12/08 15:53:06;;;;;;;43.67;17.97;;;2.20;99.90;;;-0.04;100.00;100412.41;10476534;27;96531;-89
2023/12/08 15:58:18;;;;;;;48.70;19.33;;;2.20;99.90;;;0.00;100.00;100426.97;10440462;27;96559;-89
2023/12/08 16:03:26;;;;;;;48.20;17.93;;;2.20;99.90;;;-0.03;100.00;100414.06;10458710;27;96625;-89
2023/12/08 16:08:40;;;;;;;46.27;18.97;;;2.20;99.90;;;0.01;100.00;100418.19;10453408;27;96620;-90
2023/12/08 16:13:43;;;;;;;57.90;22.53;;;2.20;99.90;;;-0.06;100.00;100412.50;10468785;27;96788;-89
2023/12/08 16:18:48;;;;;;;38.33;15.77;;;2.20;99.90;;;-0.03;100.00;100414.91;10466464;27;96978;-89
2023/12/08 16:23:53;;;;;;;43.33;17.67;;;2.20;99.90;;;0.00;100.00;100421.75;10428546;27;97218;-89
2023/12/08 16:28:58;;;;;;;51.33;20.60;;;2.20;99.90;;;-0.01;100.00;100427.88;10454886;27;96560;-89
2023/12/08 16:34:02;;;;;;;46.97;19.73;;;2.20;99.90;;;-0.04;100.00;100421.06;10445117;27;96746;-89
2023/12/08 16:39:06;;;;;;;51.87;20.73;;;2.10;99.90;;;-0.04;100.00;100417.63;10415217;27;97347;-88
2023/12/08 16:44:13;;;;;;;53.60;20.33;;;2.10;99.90;;;-0.04;100.00;100415.00;10421658;27;96662;-88
2023/12/08 16:49:19;;;;;;;50.03;20.20;;;2.10;99.90;;;-0.06;100.00;100422.09;10463375;27;97201;-88
2023/12/08 16:54:23;;;;;;;40.67;17.33;;;2.10;99.90;;;-0.18;100.00;100412.41;10470724;27;97006;-88
2023/12/08 16:59:31;;;;;;;41.17;17.43;;;2.10;99.90;;;-0.13;100.00;100434.69;10462115;27;96657;-88
2023/12/08 17:04:36;;;;;;;43.53;17.17;;;2.10;99.90;;;-0.10;100.00;100446.75;10463425;27;96616;-88
2023/12/08 17:09:40;;;;;;;47.47;18.53;;;2.10;99.90;;;-0.14;100.00;100432.19;10449622;27;98060;-89
2023/12/08 17:14:44;;;;;;;45.50;19.23;;;2.10;99.90;;;-0.08;100.00;100455.31;10422701;27;96603;-89
2023/12/08 17:19:49;;;;;;;44.47;16.07;;;2.10;99.90;;;-0.15;100.00;100443.56;10441101;27;96772;-89
2023/12/08 17:24:53;;;;;;;37.33;16.57;;;2.00;99.90;;;-0.14;100.00;100445.25;10459445;27;97076;-89
2023/12/08 17:29:56;;;;;;;43.80;18.67;;;2.10;99.90;;;-0.12;100.00;100462.53;10440330;27;96453;-89
2023/12/08 17:35:00;;;;;;;37.43;15.83;;;2.10;99.90;;;-0.13;100.00;100462.59;10439216;27;96633;-88
2023/12/08 17:40:05;;;;;;;48.43;18.50;;;2.00;99.90;;;-0.12;100.00;100464.25;10413861;28;96594;-90
2023/12/08 17:45:10;;;;;;;42.57;17.60;;;2.00;99.90;;;-0.11;100.00;100466.81;10414860;28;96491;-89
2023/12/08 17:50:13;;;;;;;46.87;20.03;;;2.00;99.90;;;-0.12;100.00;100464.25;10469835;27;96516;-89
2023/12/08 17:55:17;;;;;;;31.40;15.53;;;2.00;99.90;;;-0.17;100.00;100471.56;10415399;27;98362;-89
2023/12/08 18:00:23;;;;;;;41.17;17.37;;;2.00;99.90;;;-0.19;100.00;100489.06;10469595;27;96643;-90
2023/12/08 18:05:33;;;;;;;24.17;11.73;;;1.90;99.90;;;-0.23;100.00;100488.44;10455032;27;97464;-90
2023/12/08 18:10:36;;;;;;;27.53;11.47;;;1.90;99.90;;;-0.35;100.00;100479.56;10453438;27;96921;-88
2023/12/08 18:15:40;;;;;;;32.27;15.60;;;1.80;99.90;;;-0.32;100.00;100487.19;10463558;27;96597;-90
2023/12/08 18:20:43;;;;;;;20.77;9.70;;;1.80;99.90;;;-0.38;100.00;100486.72;10483745;27;96676;-89
2023/12/08 18:25:53;;;;;;;19.53;9.27;;;1.70;99.90;;;-0.40;100.00;100496.44;10481929;27;96567;-88
2023/12/08 18:30:57;;;;;;;20.80;9.03;;;1.70;99.90;;;-0.45;100.00;100495.84;10464665;27;97923;-89
2023/12/08 18:36:00;;;;;;;18.87;8.97;;;1.70;99.90;;;-0.47;100.00;100509.00;10480570;27;96624;-89
2023/12/08 18:41:06;;;;;;;21.30;10.67;;;1.60;99.90;;;-0.48;100.00;100515.16;10484127;27;96613;-89
2023/12/08 18:46:14;;;;;;;21.47;11.87;;;1.60;99.90;;;-0.55;100.00;100498.16;10470501;27;99096;-87
2023/12/08 18:51:18;;;;;;;26.43;12.67;;;1.60;99.90;;;-0.47;100.00;100513.41;10437761;27;96742;-89
2023/12/08 18:56:22;;;;;;;25.10;11.17;;;1.60;99.90;;;-0.49;100.00;100510.84;10450654;27;96588;-89
2023/12/08 19:01:26;;;;;;;19.13;9.70;;;1.70;99.90;;;-0.45;100.00;100519.34;10457636;27;97813;-89
2023/12/08 19:06:30;;;;;;;23.73;11.13;;;1.70;99.90;;;-0.45;100.00;100501.91;10462406;27;96589;-90
2023/12/08 19:11:33;;;;;;;29.67;13.20;;;1.70;99.90;;;-0.43;100.00;100512.25;10445246;27;97057;-88
2023/12/08 19:16:37;;;;;;;22.80;10.13;;;1.70;99.90;;;-0.44;100.00;100516.66;10437675;27;96602;-89
2023/12/08 19:21:41;;;;;;;30.00;11.80;;;1.70;99.90;;;-0.47;100.00;100510.78;10482089;27;96581;-88
2023/12/08 19:26:45;;;;;;;23.90;11.27;;;1.70;99.90;;;-0.46;100.00;100505.47;10462379;27;96605;-88
2023/12/08 19:31:49;;;;;;;23.23;10.40;;;1.70;99.90;;;-0.44;100.00;100519.25;10470278;27;96506;-88
2023/12/08 19:36:52;;;;;;;33.40;13.13;;;1.70;99.90;;;-0.45;100.00;100508.91;10493628;27;98077;-89
2023/12/08 19:41:56;;;;;;;33.53;15.60;;;1.70;99.90;;;-0.44;100.00;100506.22;10458082;27;96633;-88
2023/12/08 19:47:00;;;;;;;30.00;13.70;;;1.70;99.90;;;-0.42;100.00;100509.59;10432854;27;98099;-88
2023/12/08 19:52:04;;;;;;;32.23;14.87;;;1.70;99.90;;;-0.39;100.00;100525.06;10445341;27;96680;-88
2023/12/08 19:57:11;;;;;;;47.73;20.13;;;1.80;99.90;;;-0.40;100.00;100523.38;10442997;27;96611;-88
2023/12/08 20:02:16;;;;;;;39.83;16.10;;;1.80;99.90;;;-0.47;100.00;100506.41;10459683;27;98494;-88
2023/12/08 20:07:19;;;;;;;34.97;16.10;;;1.80;99.90;;;-0.40;100.00;100518.16;10482253;27;96522;-88
2023/12/08 20:12:25;;;;;;;39.30;16.67;;;1.80;99.90;;;-0.35;100.00;100531.78;10447332;27;96790;-87
2023/12/08 20:17:29;;;;;;;34.53;13.83;;;1.80;99.90;;;-0.35;100.00;100537.00;10476595;27;96599;-88
2023/12/08 20:22:34;;;;;;;36.80;15.27;;;1.80;99.90;;;-0.35;100.00;100537.00;10474113;27;96577;-88
2023/12/08 20:27:37;;;;;;;42.37;18.50;;;1.80;99.90;;;-0.33;100.00;100536.91;10475053;27;96665;-88
2023/12/08 20:32:44;;;;;;;31.70;14.07;;;1.80;99.90;;;-0.40;100.00;100530.38;10464470;27;96579;-88